Time;durP1;ratioP1;P1;durP2;ratioP2;P2;SDS_P1;SDS_P2;PMS_P1;PMS_P2;Temp;Humidity;BMP_temperature;BMP_pressure;BME280_temperature;BME280_humidity;BME280_pressure;Samples;Min_cycle;Max_cycle;Signal;HPM_P1;HPM_P2
2021/11/27 00:02:21;;;;;;;16.65;12.60;;;;;;;4.77;77.15;100298.81;1821348;78;20942;-75
2021/11/27 00:04:48;;;;;;;19.15;11.60;;;;;;;4.82;77.09;100293.88;1821706;78;20883;-76
2021/11/27 00:07:15;;;;;;;17.75;12.20;;;;;;;4.87;76.89;100285.00;1821690;78;21089;-76
2021/11/27 00:09:43;;;;;;;18.07;12.50;;;;;;;4.89;76.75;100279.72;1821470;78;21409;-75
2021/11/27 00:12:10;;;;;;;19.65;12.95;;;;;;;4.89;76.69;100287.52;1821797;78;20939;-76
2021/11/27 00:14:39;;;;;;;16.97;11.63;;;;;;;4.90;76.54;100272.34;1821467;78;20923;-76
2021/11/27 00:17:07;;;;;;;19.90;13.43;;;;;;;4.89;76.40;100267.60;1821406;78;21416;-75
2021/11/27 00:19:35;;;;;;;14.47;10.68;;;;;;;4.92;76.35;100255.77;1821181;78;21141;-76
2021/11/27 00:22:03;;;;;;;16.65;11.30;;;;;;;4.93;76.37;100247.52;1821446;78;20963;-76
2021/11/27 00:24:30;;;;;;;19.75;11.80;;;;;;;4.91;76.42;100250.63;1821354;78;20887;-76
2021/11/27 00:26:57;;;;;;;16.32;10.55;;;;;;;4.90;76.50;100238.09;1821466;78;20915;-76
2021/11/27 00:29:24;;;;;;;19.23;12.93;;;;;;;4.91;76.59;100237.63;1821515;78;20927;-76
2021/11/27 00:31:51;;;;;;;15.72;10.90;;;;;;;4.92;76.61;100237.58;1821392;78;21146;-76
2021/11/27 00:34:18;;;;;;;16.75;11.40;;;;;;;4.93;76.66;100234.05;1821585;78;20903;-76
2021/11/27 00:36:45;;;;;;;15.45;10.90;;;;;;;4.95;76.66;100233.54;1821602;78;21357;-76
2021/11/27 00:39:12;;;;;;;19.55;10.82;;;;;;;4.97;76.73;100230.88;1821812;78;21397;-74
2021/11/27 00:41:40;;;;;;;16.40;11.10;;;;;;;4.98;76.71;100220.44;1821524;78;20951;-73
2021/11/27 00:44:07;;;;;;;13.15;10.40;;;;;;;5.01;76.73;100219.92;1822244;78;21338;-76
2021/11/27 00:46:34;;;;;;;19.57;11.73;;;;;;;5.02;76.79;100212.03;1821693;78;20915;-76
2021/11/27 00:49:01;;;;;;;15.18;10.28;;;;;;;5.04;76.77;100198.98;1821674;78;21487;-76
2021/11/27 00:51:29;;;;;;;16.45;11.40;;;;;;;5.04;76.79;100201.58;1821408;78;20896;-74
2021/11/27 00:53:57;;;;;;;16.07;11.00;;;;;;;5.04;76.92;100201.58;1821255;78;20918;-74
2021/11/27 00:56:25;;;;;;;19.45;11.60;;;;;;;5.04;76.87;100184.23;1821908;78;21100;-76
2021/11/27 00:58:53;;;;;;;18.35;11.83;;;;;;;5.06;76.96;100182.41;1821286;78;20955;-74
2021/11/27 01:01:26;;;;;;;14.20;10.38;;;;;;;5.07;77.07;100181.94;1821356;78;20947;-74
2021/11/27 01:03:54;;;;;;;14.85;10.93;;;;;;;5.06;77.27;100188.06;1821984;78;20935;-74
2021/11/27 01:06:23;;;;;;;18.12;11.53;;;;;;;5.08;77.43;100178.45;1821564;78;21445;-74
2021/11/27 01:08:51;;;;;;;14.63;10.48;;;;;;;5.10;77.46;100183.13;1821889;78;21098;-73
2021/11/27 01:11:24;;;;;;;19.95;11.33;;;;;;;5.11;77.52;100167.47;1821496;78;20828;-74
2021/11/27 01:13:54;;;;;;;15.85;10.93;;;;;;;5.15;77.50;100161.66;1820772;78;21516;-75
2021/11/27 01:16:24;;;;;;;16.85;10.00;;;;;;;5.17;77.50;100163.73;1821524;78;20923;-75
2021/11/27 01:18:51;;;;;;;15.23;10.28;;;;;;;5.18;77.58;100157.64;1821869;78;20951;-75
2021/11/27 01:21:22;;;;;;;17.60;11.03;;;;;;;5.15;77.76;100145.60;1821508;78;21361;-76
2021/11/27 01:23:49;;;;;;;15.45;11.90;;;;;;;5.16;77.89;100139.51;1821793;78;21314;-75
2021/11/27 01:26:19;;;;;;;17.80;11.90;;;;;;;5.18;77.98;100136.39;1821574;78;20840;-75
2021/11/27 01:28:46;;;;;;;20.97;11.60;;;;;;;5.18;78.04;100131.65;1821637;78;20927;-75
2021/11/27 01:31:17;;;;;;;18.37;11.40;;;;;;;5.19;78.21;100119.03;1816692;78;21405;-74
2021/11/27 01:33:44;;;;;;;16.40;10.63;;;;;;;5.18;78.40;100138.15;1821604;78;21139;-76
2021/11/27 01:36:12;;;;;;;17.50;11.15;;;;;;;5.17;78.58;100119.55;1821499;78;20861;-75
2021/11/27 01:38:41;;;;;;;14.50;10.90;;;;;;;5.16;78.70;100118.72;1821613;78;21491;-74
2021/11/27 01:41:08;;;;;;;14.33;10.00;;;;;;;5.16;78.92;100109.62;1821670;78;20911;-74
2021/11/27 01:43:37;;;;;;;19.17;12.78;;;;;;;5.19;79.03;100100.83;1821604;78;20887;-75
2021/11/27 01:46:05;;;;;;;16.73;10.88;;;;;;;5.21;79.04;100103.38;1821673;78;21505;-75
2021/11/27 01:48:33;;;;;;;16.15;10.72;;;;;;;5.23;79.06;100099.78;1821427;78;20927;-76
2021/11/27 01:51:03;;;;;;;17.80;10.38;;;;;;;5.24;79.27;100095.42;1821503;78;20907;-74
2021/11/27 01:53:33;;;;;;;15.90;10.53;;;;;;;5.26;79.34;100089.23;1821485;78;20958;-74
2021/11/27 01:56:03;;;;;;;14.87;10.53;;;;;;;5.29;79.45;100103.41;1821531;78;20975;-76
2021/11/27 01:58:30;;;;;;;14.90;10.65;;;;;;;5.31;79.48;100095.05;1821891;78;21093;-76
2021/11/27 02:01:03;;;;;;;19.45;10.93;;;;;;;5.33;79.57;100084.13;1821731;78;20934;-76
2021/11/27 02:03:31;;;;;;;18.12;11.03;;;;;;;5.35;79.58;100073.66;1821965;78;20966;-75
2021/11/27 02:06:05;;;;;;;16.70;11.25;;;;;;;5.39;79.61;100076.50;1820205;78;20919;-76
2021/11/27 02:08:32;;;;;;;16.00;11.10;;;;;;;5.42;79.61;100079.41;1821525;78;20943;-76
2021/11/27 02:11:01;;;;;;;18.30;11.65;;;;;;;5.44;79.64;100084.92;1821617;78;21527;-76
2021/11/27 02:13:28;;;;;;;14.95;10.63;;;;;;;5.48;79.61;100078.66;1821708;78;20845;-76
2021/11/27 02:15:55;;;;;;;16.70;10.72;;;;;;;5.52;79.53;100078.07;1821147;78;20959;-76
2021/11/27 02:18:23;;;;;;;16.60;10.82;;;;;;;5.56;79.57;100071.81;1821686;78;20924;-75
2021/11/27 02:20:58;;;;;;;14.60;10.18;;;;;;;5.61;79.56;100070.66;1821357;78;20990;-75
2021/11/27 02:23:27;;;;;;;18.62;10.90;;;;;;;5.65;79.55;100068.77;1821912;78;21125;-73
2021/11/27 02:25:54;;;;;;;16.60;9.30;;;;;;;5.69;79.46;100072.91;1821594;78;21410;-74
2021/11/27 02:28:22;;;;;;;21.42;11.22;;;;;;;5.73;79.48;100073.11;1821805;78;20958;-77
2021/11/27 02:30:49;;;;;;;15.63;9.95;;;;;;;5.75;79.45;100066.08;1821378;78;20856;-76
2021/11/27 02:33:17;;;;;;;16.02;10.30;;;;;;;5.79;79.37;100056.38;1821570;78;21397;-75
2021/11/27 02:35:44;;;;;;;12.98;9.93;;;;;;;5.84;79.38;100051.78;1821659;78;21065;-73
2021/11/27 02:38:11;;;;;;;13.85;9.88;;;;;;;5.87;79.34;100046.87;1821689;78;20919;-75
2021/11/27 02:40:39;;;;;;;12.05;9.40;;;;;;;5.90;79.31;100048.05;1821449;78;20919;-75
2021/11/27 02:43:06;;;;;;;16.75;9.75;;;;;;;5.92;79.37;100052.25;1821704;78;20864;-75
2021/11/27 02:45:33;;;;;;;13.10;9.98;;;;;;;5.96;79.32;100050.37;1821511;78;20895;-75
2021/11/27 02:48:02;;;;;;;14.58;9.40;;;;;;;5.99;79.32;100055.42;1821991;78;20931;-76
2021/11/27 02:50:29;;;;;;;17.82;10.15;;;;;;;6.02;79.40;100047.44;1821448;78;20903;-76
2021/11/27 02:52:57;;;;;;;15.25;9.78;;;;;;;6.06;79.42;100059.86;1821609;78;20929;-74
2021/11/27 02:55:24;;;;;;;13.43;9.63;;;;;;;6.08;79.50;100043.23;1821610;78;21449;-75
2021/11/27 02:57:51;;;;;;;12.82;9.18;;;;;;;6.13;79.51;100039.93;1821462;78;20998;-75
2021/11/27 03:00:21;;;;;;;12.78;9.88;;;;;;;6.18;79.50;100043.59;1821826;78;21053;-74
2021/11/27 03:02:48;;;;;;;10.75;9.23;;;;;;;6.21;79.45;100035.19;1821368;78;20836;-75
2021/11/27 03:05:16;;;;;;;13.72;9.25;;;;;;;6.26;79.47;100031.50;1821629;78;20916;-74
2021/11/27 03:07:43;;;;;;;12.50;10.03;;;;;;;6.31;79.52;100026.89;1821349;78;20879;-75
2021/11/27 03:10:14;;;;;;;17.12;10.23;;;;;;;6.36;79.56;100027.52;1821546;78;21452;-76
2021/11/27 03:12:43;;;;;;;16.35;9.73;;;;;;;6.39;79.57;100016.46;1821502;78;21010;-74
2021/11/27 03:15:16;;;;;;;11.10;8.60;;;;;;;6.42;79.66;100015.45;1821344;78;20892;-74
2021/11/27 03:17:47;;;;;;;11.68;8.68;;;;;;;6.46;79.72;100010.47;1821490;78;21393;-76
2021/11/27 03:20:16;;;;;;;16.30;8.20;;;;;;;6.49;80.06;100005.55;1821464;78;20927;-75
2021/11/27 03:22:44;;;;;;;13.28;7.95;;;;;;;6.51;80.18;99990.69;1824527;78;20877;-75
2021/11/27 03:25:14;;;;;;;14.07;8.18;;;;;;;6.54;80.47;99984.86;1824649;78;20980;-76
2021/11/27 03:27:43;;;;;;;13.98;8.40;;;;;;;6.58;80.53;99988.13;1769683;78;20945;-74
2021/11/27 03:30:14;;;;;;;15.72;8.90;;;;;;;6.63;80.58;99996.56;1825023;78;20869;-74
2021/11/27 03:32:43;;;;;;;15.72;7.87;;;;;;;6.66;80.60;99997.69;1824973;78;20928;-76
2021/11/27 03:35:12;;;;;;;10.80;7.35;;;;;;;6.72;80.72;99996.53;1823902;78;20897;-75
2021/11/27 03:37:41;;;;;;;13.22;8.25;;;;;;;6.76;80.78;99994.11;1823803;78;21149;-76
2021/11/27 03:40:09;;;;;;;9.98;7.85;;;;;;;6.81;80.96;99992.11;1824362;78;20850;-76
2021/11/27 03:42:37;;;;;;;14.68;9.03;;;;;;;6.84;81.02;99987.56;1824568;78;20846;-77
2021/11/27 03:45:08;;;;;;;13.55;8.75;;;;;;;6.89;81.07;99986.47;1824596;78;21394;-76
2021/11/27 03:47:36;;;;;;;14.90;8.28;;;;;;;6.92;81.07;99983.24;1824806;78;20885;-76
2021/11/27 03:50:03;;;;;;;10.50;6.87;;;;;;;6.95;81.14;99982.23;1824885;78;21111;-76
2021/11/27 03:52:31;;;;;;;10.43;7.90;;;;;;;6.98;81.45;99980.75;1794933;78;20964;-76
2021/11/27 03:54:58;;;;;;;13.10;7.45;;;;;;;7.00;81.51;99981.50;1824562;78;20925;-76
2021/11/27 03:57:25;;;;;;;10.95;8.23;;;;;;;7.01;81.85;99980.13;1824604;78;20940;-74
2021/11/27 03:59:52;;;;;;;12.68;7.53;;;;;;;7.04;82.03;99976.50;1824485;78;20913;-75
2021/11/27 04:02:19;;;;;;;10.78;7.97;;;;;;;7.08;82.19;99974.11;1824914;78;21060;-74
2021/11/27 04:04:47;;;;;;;15.88;9.15;;;;;;;7.11;82.37;99973.92;1824480;78;21351;-76
2021/11/27 04:07:15;;;;;;;13.20;8.98;;;;;;;7.15;82.65;99966.78;1824545;78;20932;-77
2021/11/27 04:09:44;;;;;;;14.28;8.83;;;;;;;7.18;82.85;99958.77;1824702;78;20992;-77
2021/11/27 04:12:11;;;;;;;16.55;9.40;;;;;;;7.24;82.97;99950.61;1824990;78;20964;-76
2021/11/27 04:14:40;;;;;;;10.32;7.67;;;;;;;7.29;83.20;99951.65;1823329;78;21402;-77
2021/11/27 04:17:07;;;;;;;22.67;9.98;;;;;;;7.32;83.66;99952.33;1824709;78;20885;-74
2021/11/27 04:19:34;;;;;;;18.73;9.00;;;;;;;7.36;83.99;99947.75;1824956;78;20929;-75
2021/11/27 04:22:03;;;;;;;15.28;7.75;;;;;;;7.39;84.19;99942.38;1822662;78;20963;-77
2021/11/27 04:24:32;;;;;;;11.35;8.80;;;;;;;7.42;84.29;99949.55;1821417;78;21461;-75
2021/11/27 04:26:59;;;;;;;13.08;8.03;;;;;;;7.44;84.39;99937.26;1821324;78;21133;-75
2021/11/27 04:29:26;;;;;;;10.90;8.40;;;;;;;7.46;84.57;99936.70;1821402;78;21104;-74
2021/11/27 04:31:53;;;;;;;13.28;8.68;;;;;;;7.49;84.64;99936.98;1821548;78;20896;-74
2021/11/27 04:34:22;;;;;;;11.43;7.40;;;;;;;7.54;84.60;99932.83;1821419;78;20931;-75
2021/11/27 04:36:49;;;;;;;11.08;7.30;;;;;;;7.58;84.58;99926.48;1821884;78;20994;-74
2021/11/27 04:39:16;;;;;;;10.78;7.95;;;;;;;7.58;84.76;99926.04;1821558;78;21116;-75
2021/11/27 04:41:43;;;;;;;16.25;7.28;;;;;;;7.60;84.94;99915.05;1821876;78;20971;-75
2021/11/27 04:44:10;;;;;;;11.08;7.15;;;;;;;7.62;84.97;99911.02;1821704;78;21073;-76
2021/11/27 04:46:36;;;;;;;12.10;8.63;;;;;;;7.65;85.08;99912.17;1821953;78;20935;-75
2021/11/27 04:49:03;;;;;;;15.38;8.83;;;;;;;7.67;85.23;99920.75;1821841;78;20927;-74
2021/11/27 04:51:30;;;;;;;13.48;8.10;;;;;;;7.73;85.35;99922.97;1821829;78;21096;-75
2021/11/27 04:53:57;;;;;;;11.33;7.47;;;;;;;7.79;85.41;99933.05;1821442;78;21410;-75
2021/11/27 04:56:25;;;;;;;12.13;6.72;;;;;;;7.84;85.30;99919.25;1789942;78;20907;-75
2021/11/27 04:58:52;;;;;;;11.57;6.95;;;;;;;7.89;85.34;99924.19;1821578;78;21026;-75
2021/11/27 05:01:22;;;;;;;10.53;7.12;;;;;;;7.94;85.29;99907.80;1821508;78;20915;-74
2021/11/27 05:03:52;;;;;;;13.53;8.45;;;;;;;7.97;85.32;99903.69;1820467;78;21116;-74
2021/11/27 05:06:19;;;;;;;9.98;8.05;;;;;;;8.00;85.38;99915.72;1821532;78;20907;-76
2021/11/27 05:08:46;;;;;;;9.88;7.40;;;;;;;8.03;85.30;99920.77;1821781;78;20982;-76
2021/11/27 05:11:13;;;;;;;14.15;8.28;;;;;;;8.04;85.16;99911.99;1821570;78;20923;-75
2021/11/27 05:13:40;;;;;;;11.22;6.90;;;;;;;8.05;85.21;99900.16;1821964;78;20876;-75
2021/11/27 05:16:07;;;;;;;10.88;7.05;;;;;;;8.08;85.31;99893.91;1821478;78;21482;-75
2021/11/27 05:18:35;;;;;;;15.60;6.87;;;;;;;8.09;85.37;99892.95;1821512;78;20915;-75
2021/11/27 05:21:02;;;;;;;10.45;7.10;;;;;;;8.10;85.35;99888.95;1821378;78;20899;-75
2021/11/27 05:23:30;;;;;;;10.68;6.30;;;;;;;8.13;85.32;99889.23;1821501;78;20844;-75
2021/11/27 05:25:59;;;;;;;10.13;5.83;;;;;;;8.18;85.34;99883.28;1821262;78;20879;-74
2021/11/27 05:28:44;;;;;;;11.80;7.72;;;;;;;8.22;85.36;99883.43;1821738;78;21532;-75
2021/11/27 05:31:16;;;;;;;10.55;7.85;;;;;;;8.24;85.35;99869.81;1813228;78;21082;-77
2021/11/27 05:36:17;;;;;;;12.03;8.03;;;;;;;8.28;85.19;99888.28;1821555;78;20993;-76
2021/11/27 05:38:46;;;;;;;13.22;9.25;;;;;;;8.27;85.19;99876.17;1821475;78;21063;-76
2021/11/27 05:41:14;;;;;;;14.43;8.85;;;;;;;8.27;85.20;99877.48;1821497;78;21118;-76
2021/11/27 05:43:41;;;;;;;11.35;7.87;;;;;;;8.27;85.21;99872.70;1821448;78;20966;-75
2021/11/27 05:46:09;;;;;;;12.47;8.00;;;;;;;8.28;85.21;99886.14;1821474;78;20927;-75
2021/11/27 05:48:37;;;;;;;10.35;7.15;;;;;;;8.28;85.29;99877.00;1821532;78;20899;-76
2021/11/27 05:51:22;;;;;;;10.15;7.20;;;;;;;8.28;85.44;99869.16;1821495;78;20935;-74
2021/11/27 05:53:51;;;;;;;9.40;7.20;;;;;;;8.30;85.43;99872.52;1821489;78;21133;-76
2021/11/27 05:56:18;;;;;;;9.55;6.45;;;;;;;8.32;85.41;99884.19;1821728;78;21330;-74
2021/11/27 05:58:45;;;;;;;10.10;6.30;;;;;;;8.33;85.47;99878.85;1821622;78;20975;-76
2021/11/27 06:01:12;;;;;;;7.80;5.67;;;;;;;8.36;85.51;99881.73;1821740;78;21445;-76
2021/11/27 06:03:40;;;;;;;10.48;6.47;;;;;;;8.37;85.52;99878.20;1821555;78;20875;-76
2021/11/27 06:06:07;;;;;;;11.05;6.28;;;;;;;8.38;85.52;99870.28;1821515;78;21101;-76
2021/11/27 06:08:34;;;;;;;9.40;6.08;;;;;;;8.40;85.55;99861.88;1821429;78;20963;-75
2021/11/27 06:11:03;;;;;;;9.20;4.87;;;;;;;8.40;85.53;99857.96;1821462;78;21357;-76
2021/11/27 06:13:30;;;;;;;9.48;5.95;;;;;;;8.44;85.65;99861.23;1821359;78;20998;-75
2021/11/27 06:15:56;;;;;;;7.08;5.40;;;;;;;8.46;85.67;99861.97;1821861;78;20876;-76
2021/11/27 06:18:23;;;;;;;8.20;5.65;;;;;;;8.48;85.65;99856.19;1821666;78;21020;-75
2021/11/27 06:20:51;;;;;;;11.35;7.05;;;;;;;8.51;85.69;99855.98;1821403;78;20868;-75
2021/11/27 06:23:18;;;;;;;10.93;6.05;;;;;;;8.54;85.70;99858.86;1821335;78;20856;-75
2021/11/27 06:25:44;;;;;;;9.60;5.85;;;;;;;8.57;85.69;99854.77;1821792;78;20958;-75
2021/11/27 06:28:12;;;;;;;8.73;4.53;;;;;;;8.58;85.79;99859.90;1821463;78;21446;-75
2021/11/27 06:30:41;;;;;;;9.45;4.87;;;;;;;8.58;85.70;99855.98;1821512;78;21549;-75
2021/11/27 06:33:08;;;;;;;7.67;4.50;;;;;;;8.59;85.81;99855.03;1821408;78;20864;-75
2021/11/27 06:35:36;;;;;;;8.03;5.17;;;;;;;8.60;85.88;99847.55;1821423;78;21065;-74
2021/11/27 06:38:02;;;;;;;7.50;4.22;;;;;;;8.61;85.96;99833.55;1821368;78;20935;-74
2021/11/27 06:40:29;;;;;;;4.70;3.52;;;;;;;8.63;85.93;99831.69;1821756;78;20964;-74
2021/11/27 06:43:01;;;;;;;6.15;4.47;;;;;;;8.64;85.93;99832.04;1789351;78;21169;-76
2021/11/27 06:45:30;;;;;;;7.42;5.12;;;;;;;8.63;86.07;99832.16;1816967;78;20840;-77
2021/11/27 06:48:01;;;;;;;7.45;5.78;;;;;;;8.64;86.20;99823.37;1820946;78;20990;-76
2021/11/27 06:50:29;;;;;;;8.08;5.17;;;;;;;8.66;86.15;99828.03;1821288;78;20900;-75
2021/11/27 06:52:55;;;;;;;8.00;4.80;;;;;;;8.68;86.27;99825.69;1821360;78;20951;-75
2021/11/27 06:55:22;;;;;;;8.03;4.22;;;;;;;8.69;86.33;99823.90;1821980;78;21499;-77
2021/11/27 06:57:49;;;;;;;4.67;3.15;;;;;;;8.71;86.29;99826.81;1821403;78;21322;-77
2021/11/27 07:00:16;;;;;;;7.30;4.12;;;;;;;8.72;86.30;99811.95;1821752;78;20844;-78
2021/11/27 07:03:03;;;;;;;5.55;3.37;;;;;;;8.71;86.35;99811.13;1821342;78;20892;-78
2021/11/27 07:05:48;;;;;;;5.22;4.40;;;;;;;8.71;86.18;99808.52;1821550;78;20970;-77
2021/11/27 07:08:18;;;;;;;5.62;4.22;;;;;;;8.68;86.10;99809.17;1821383;78;20880;-77
2021/11/27 07:10:58;;;;;;;4.60;2.92;;;;;;;8.66;86.16;99819.71;1820519;78;20959;-77
2021/11/27 07:13:26;;;;;;;4.60;3.00;;;;;;;8.67;86.06;99809.64;1821725;78;20927;-77
2021/11/27 07:15:54;;;;;;;3.87;3.40;;;;;;;8.67;86.01;99807.48;1821234;78;20943;-78
2021/11/27 07:18:23;;;;;;;5.03;3.40;;;;;;;8.67;86.10;99795.71;1821496;78;21373;-78
2021/11/27 07:20:50;;;;;;;5.50;3.25;;;;;;;8.69;86.09;99806.91;1821374;78;21139;-76
2021/11/27 07:23:17;;;;;;;3.92;3.00;;;;;;;8.68;86.16;99796.93;1821386;78;20883;-77
2021/11/27 07:25:46;;;;;;;5.70;3.27;;;;;;;8.68;86.13;99796.93;1821969;78;20892;-77
2021/11/27 07:28:26;;;;;;;5.95;4.17;;;;;;;8.69;86.12;99805.60;1749780;81;20937;-77
2021/11/27 07:30:54;;;;;;;6.67;3.62;;;;;;;8.70;86.02;99800.28;1725765;82;20968;-76
2021/11/27 07:33:21;;;;;;;4.60;3.17;;;;;;;8.71;85.95;99802.42;1750318;81;21854;-76
2021/11/27 07:35:50;;;;;;;6.33;3.75;;;;;;;8.70;85.98;99795.05;1750279;82;21451;-76
2021/11/27 07:38:17;;;;;;;7.47;3.87;;;;;;;8.74;86.20;99789.17;1750279;81;20921;-75
2021/11/27 07:40:43;;;;;;;10.32;5.60;;;;;;;8.78;86.29;99784.56;1750619;82;21016;-75
2021/11/27 07:43:11;;;;;;;7.47;4.83;;;;;;;8.81;86.30;99789.61;1750468;82;20952;-77
2021/11/27 07:45:39;;;;;;;6.60;4.05;;;;;;;8.81;86.27;99794.83;1749164;81;21197;-74
2021/11/27 07:48:27;;;;;;;7.33;5.33;;;;;;;8.81;86.21;99787.82;1750338;81;21028;-76
2021/11/27 07:51:12;;;;;;;7.50;5.50;;;;;;;8.82;86.27;99771.18;1750351;81;20976;-75
2021/11/27 07:53:44;;;;;;;6.75;4.67;;;;;;;8.81;86.45;99771.30;1750383;81;20968;-76
2021/11/27 07:56:12;;;;;;;5.97;3.58;;;;;;;8.81;86.62;99770.83;1750554;81;21000;-76
2021/11/27 08:02:19;;;;;;;8.35;5.08;;;;;;;8.82;86.52;99769.88;1720783;82;21137;-88
2021/11/27 08:04:57;;;;;;;7.60;5.20;;;;;;;8.84;86.69;99769.78;1740481;81;20951;-88
2021/11/27 08:07:35;;;;;;;6.28;3.98;;;;;;;8.86;86.56;99771.83;1702703;82;20940;-88
2021/11/27 08:10:06;;;;;;;9.53;6.08;;;;;;;8.84;86.63;99765.86;1750750;82;20984;-89
2021/11/27 08:12:43;;;;;;;6.55;4.40;;;;;;;8.83;86.62;99762.89;1721687;83;20970;-90
2021/11/27 08:15:12;;;;;;;7.33;4.55;;;;;;;8.85;86.51;99772.78;1725055;82;21048;-87
2021/11/27 08:17:41;;;;;;;6.92;4.72;;;;;;;8.81;86.58;99765.59;1751456;81;21395;-90
2021/11/27 08:20:13;;;;;;;7.95;5.45;;;;;;;8.80;86.50;99752.62;1724613;82;20924;-89
2021/11/27 08:22:41;;;;;;;9.30;6.35;;;;;;;8.75;86.54;99759.94;1739749;81;21464;-87
2021/11/27 08:25:08;;;;;;;9.05;5.05;;;;;;;8.71;86.54;99751.01;1719248;82;21099;-87
2021/11/27 08:27:41;;;;;;;7.12;4.83;;;;;;;8.68;86.78;99747.27;1695876;83;20998;-88
2021/11/27 08:30:17;;;;;;;7.42;5.08;;;;;;;8.69;86.90;99741.56;1718910;82;20942;-90
2021/11/27 08:32:57;;;;;;;6.72;4.85;;;;;;;8.71;86.92;99745.78;1717840;82;20968;-85
2021/11/27 08:36:54;;;;;;;7.87;5.65;;;;;;;8.81;87.00;99738.62;1885320;75;22596;-88
2021/11/27 08:39:31;;;;;;;10.48;5.45;;;;;;;8.78;86.99;99728.35;1861464;76;21032;-91
2021/11/27 08:42:03;;;;;;;7.67;5.42;;;;;;;8.81;86.93;99724.25;1854676;76;21286;-91
2021/11/27 08:44:35;;;;;;;7.40;5.03;;;;;;;8.84;86.85;99720.11;1861798;76;20871;-89
2021/11/27 08:47:04;;;;;;;7.47;5.80;;;;;;;8.85;86.86;99718.70;1861890;77;20875;-89
2021/11/27 08:49:32;;;;;;;8.18;6.55;;;;;;;8.86;86.98;99710.39;1862042;77;20828;-89
2021/11/27 08:52:05;;;;;;;8.95;6.50;;;;;;;8.88;87.13;99713.73;1861673;76;20852;-91
2021/11/27 08:54:34;;;;;;;11.25;6.80;;;;;;;8.89;87.20;99705.80;1860736;76;21352;-87
2021/11/27 08:57:08;;;;;;;13.62;8.18;;;;;;;8.94;87.17;99696.34;1856062;77;20858;-89
2021/11/27 08:59:49;;;;;;;15.50;9.58;;;;;;;8.97;87.28;99705.27;1743521;82;20880;-91
2021/11/27 09:02:20;;;;;;;14.00;7.62;;;;;;;9.04;87.25;99704.37;1753578;82;20955;-84
2021/11/27 09:04:47;;;;;;;14.55;7.50;;;;;;;9.07;87.32;99697.17;1753980;82;20876;-87
2021/11/27 09:07:15;;;;;;;11.93;7.47;;;;;;;9.13;87.32;99685.44;1753633;82;21091;-89
2021/11/27 09:09:46;;;;;;;15.40;9.30;;;;;;;9.19;87.19;99690.25;1753959;81;20946;-88
2021/11/27 09:12:26;;;;;;;16.17;11.25;;;;;;;9.24;87.16;99692.54;1753857;82;21516;-87
2021/11/27 09:14:52;;;;;;;17.73;11.25;;;;;;;9.28;87.07;99679.62;1706595;82;20959;-89
2021/11/27 09:17:22;;;;;;;16.07;10.35;;;;;;;9.32;87.00;99683.70;1754517;82;20927;-88
2021/11/27 09:19:53;;;;;;;17.25;10.93;;;;;;;9.36;86.89;99689.09;1753741;81;21464;-91
2021/11/27 09:22:21;;;;;;;16.57;10.65;;;;;;;9.40;86.88;99673.98;1728339;82;20896;-82
2021/11/27 09:24:48;;;;;;;15.30;10.08;;;;;;;9.46;86.89;99667.85;1752817;81;21476;-76
2021/11/27 09:27:15;;;;;;;19.62;10.55;;;;;;;9.54;86.96;99664.23;1752542;82;20963;-76
2021/11/27 09:29:43;;;;;;;11.10;8.15;;;;;;;9.65;86.79;99666.53;1752467;82;20935;-75
2021/11/27 09:32:10;;;;;;;15.25;8.28;;;;;;;9.73;86.54;99664.21;1752705;82;21797;-76
2021/11/27 09:34:39;;;;;;;12.18;7.65;;;;;;;9.80;86.26;99648.89;1752436;82;21389;-75
2021/11/27 09:37:07;;;;;;;11.57;8.05;;;;;;;9.84;86.20;99649.87;1803330;77;20976;-75
2021/11/27 09:39:34;;;;;;;15.32;7.87;;;;;;;9.88;85.95;99653.94;1853782;77;20886;-75
2021/11/27 09:42:02;;;;;;;13.55;7.97;;;;;;;9.86;85.90;99647.98;1853662;77;20869;-77
2021/11/27 09:44:34;;;;;;;9.18;6.45;;;;;;;9.96;85.92;99650.78;1853653;77;21386;-77
2021/11/27 09:47:01;;;;;;;17.37;8.75;;;;;;;10.02;85.90;99658.17;1853025;77;20881;-75
2021/11/27 09:49:28;;;;;;;21.07;10.15;;;;;;;10.04;85.80;99650.20;1790159;77;20881;-80
2021/11/27 09:51:55;;;;;;;16.12;8.33;;;;;;;10.06;85.70;99649.63;1853219;77;20929;-79
2021/11/27 09:54:23;;;;;;;14.13;8.50;;;;;;;10.09;85.56;99662.03;1853402;77;20885;-77
2021/11/27 09:56:52;;;;;;;17.10;8.48;;;;;;;10.09;85.59;99671.66;1853073;77;21095;-79
2021/11/27 09:59:20;;;;;;;14.63;8.40;;;;;;;10.09;85.61;99668.58;1853006;77;20834;-82
2021/11/27 10:01:52;;;;;;;17.12;10.03;;;;;;;10.09;85.70;99665.10;1852913;77;20886;-81
2021/11/27 10:04:22;;;;;;;14.63;8.30;;;;;;;10.11;85.79;99667.14;1819746;77;20886;-80
2021/11/27 10:06:50;;;;;;;11.30;7.85;;;;;;;10.13;85.80;99671.80;1853529;77;21040;-80
2021/11/27 10:09:25;;;;;;;20.90;8.70;;;;;;;10.14;85.82;99670.86;1853287;77;21455;-82
2021/11/27 10:11:50;;;;;;;19.65;9.15;;;;;;;10.18;85.87;99672.28;1852201;76;20874;-80
2021/11/27 10:14:19;;;;;;;13.72;9.23;;;;;;;10.23;85.83;99670.66;1853069;77;20917;-80
2021/11/27 10:17:04;;;;;;;16.07;9.58;;;;;;;10.26;85.85;99654.22;1852926;77;20956;-80
2021/11/27 10:19:45;;;;;;;18.82;9.28;;;;;;;10.30;85.84;99654.39;1853142;77;20945;-79
2021/11/27 10:22:19;;;;;;;20.37;12.35;;;;;;;10.36;85.79;99657.87;1784613;80;20912;-80
2021/11/27 10:24:50;;;;;;;19.35;11.28;;;;;;;10.40;85.72;99652.39;1812957;79;20984;-82
2021/11/27 10:27:27;;;;;;;17.17;10.13;;;;;;;10.44;85.66;99661.22;1812990;78;20946;-81
2021/11/27 10:30:04;;;;;;;20.00;10.00;;;;;;;10.46;85.67;99657.17;1812865;78;20928;-79
2021/11/27 10:32:36;;;;;;;19.75;11.15;;;;;;;10.49;85.67;99663.48;1813434;79;20880;-79
2021/11/27 10:35:08;;;;;;;18.87;10.03;;;;;;;10.54;85.66;99662.20;1813134;78;21042;-80
2021/11/27 10:37:44;;;;;;;24.52;10.55;;;;;;;10.58;85.56;99660.17;1813631;79;20916;-81
2021/11/27 10:40:23;;;;;;;17.57;10.20;;;;;;;10.61;85.54;99662.58;1813690;79;20876;-80
2021/11/27 10:42:55;;;;;;;25.82;11.00;;;;;;;10.64;85.54;99655.78;1813790;79;20917;-81
2021/11/27 10:45:31;;;;;;;24.47;10.68;;;;;;;10.67;85.51;99653.40;1812317;78;21343;-83
2021/11/27 10:48:11;;;;;;;20.92;10.93;;;;;;;10.72;85.49;99657.36;1813549;78;21129;-79
2021/11/27 10:50:52;;;;;;;20.40;10.63;;;;;;;10.75;85.39;99657.11;1813527;78;20924;-79
2021/11/27 10:53:33;;;;;;;19.23;10.68;;;;;;;10.81;85.35;99649.75;1813796;78;20857;-80
2021/11/27 10:56:09;;;;;;;18.52;11.30;;;;;;;10.86;85.26;99661.54;1813466;79;20925;-79
2021/11/27 10:59:02;;;;;;;18.60;10.48;;;;;;;10.92;85.14;99661.56;1813771;78;20936;-80
2021/11/27 11:01:30;;;;;;;15.90;10.65;;;;;;;10.95;85.00;99661.31;1813595;79;21133;-79
2021/11/27 11:04:17;;;;;;;20.45;10.38;;;;;;;10.97;84.91;99664.17;1813928;79;20924;-81
2021/11/27 11:06:46;;;;;;;21.50;10.78;;;;;;;11.00;84.85;99656.53;1813501;78;20928;-81
2021/11/27 11:09:15;;;;;;;19.92;9.85;;;;;;;11.01;84.87;99654.29;1813437;79;20873;-79
2021/11/27 11:11:46;;;;;;;20.35;11.12;;;;;;;11.07;84.84;99659.52;1813405;79;20861;-80
2021/11/27 11:14:25;;;;;;;16.48;9.38;;;;;;;11.10;84.88;99661.92;1813530;79;21145;-78
2021/11/27 11:16:57;;;;;;;20.65;11.28;;;;;;;11.12;84.88;99666.09;1813157;78;20873;-80
2021/11/27 11:19:25;;;;;;;17.77;10.20;;;;;;;11.15;84.89;99660.59;1813594;79;21015;-80
2021/11/27 11:22:13;;;;;;;17.00;10.72;;;;;;;11.20;84.85;99666.34;1813475;79;20893;-80
2021/11/27 11:24:45;;;;;;;16.00;10.58;;;;;;;11.24;84.81;99660.84;1813478;79;21477;-80
2021/11/27 11:27:25;;;;;;;16.97;8.73;;;;;;;11.25;84.73;99660.73;1813525;79;21114;-79
2021/11/27 11:29:51;;;;;;;16.80;11.38;;;;;;;11.30;84.71;99653.81;1808951;78;20849;-80
2021/11/27 11:32:21;;;;;;;20.20;10.90;;;;;;;11.35;84.61;99649.02;1813576;79;20936;-80
2021/11/27 11:34:53;;;;;;;17.40;9.90;;;;;;;11.40;84.54;99641.16;1813874;78;20913;-81
2021/11/27 11:37:20;;;;;;;19.45;11.40;;;;;;;11.44;84.39;99636.48;1813530;77;21121;-82
2021/11/27 11:39:47;;;;;;;18.60;10.58;;;;;;;11.50;84.27;99639.94;1813690;79;21041;-81
2021/11/27 11:42:15;;;;;;;20.60;11.40;;;;;;;11.53;84.20;99643.62;1813150;79;21006;-81
2021/11/27 11:44:42;;;;;;;16.20;10.08;;;;;;;11.58;84.13;99648.05;1812994;79;20944;-80
2021/11/27 11:47:11;;;;;;;19.42;9.83;;;;;;;11.62;84.02;99649.44;1812965;78;20904;-80
2021/11/27 11:49:38;;;;;;;22.37;10.98;;;;;;;11.65;83.90;99648.39;1813319;78;21410;-80